Time;durP1;ratioP1;P1;durP2;ratioP2;P2;SDS_P1;SDS_P2;PMS_P1;PMS_P2;Temp;Humidity;BMP_temperature;BMP_pressure;BME280_temperature;BME280_humidity;BME280_pressure;Samples;Min_cycle;Max_cycle;Signal;HPM_P1;HPM_P2
2022/12/12 00:00:33;;;;;;;17.83;9.32;;;;;;;;;;4992537;28;20547;-67
2022/12/12 00:02:59;;;;;;;20.42;8.35;;;;;;;;;;4992867;28;20031;-67
2022/12/12 00:05:25;;;;;;;23.83;9.90;;;;;;;;;;4991584;28;20026;-67
2022/12/12 00:07:50;;;;;;;22.63;8.95;;;;;;;;;;4992733;28;20018;-67
2022/12/12 00:10:15;;;;;;;19.13;8.65;;;;;;;;;;4992231;28;20153;-68
2022/12/12 00:12:41;;;;;;;14.05;7.25;;;;;;;;;;4995493;28;20041;-67
2022/12/12 00:15:07;;;;;;;15.73;7.57;;;;;;;;;;4996161;28;20027;-66
2022/12/12 00:17:33;;;;;;;16.95;8.35;;;;;;;;;;4996160;28;20038;-67
2022/12/12 00:19:59;;;;;;;20.30;9.50;;;;;;;;;;4996185;28;20161;-66
2022/12/12 00:22:24;;;;;;;20.38;8.93;;;;;;;;;;4996176;28;20089;-66
2022/12/12 00:24:50;;;;;;;18.50;8.02;;;;;;;;;;4996105;28;20034;-66
2022/12/12 00:27:15;;;;;;;21.02;9.50;;;;;;;;;;4996623;28;20505;-67
2022/12/12 00:29:41;;;;;;;17.27;8.07;;;;;;;;;;5015432;28;20042;-67
2022/12/12 00:32:06;;;;;;;13.32;7.18;;;;;;;;;;5015534;28;20032;-68
2022/12/12 00:34:31;;;;;;;17.50;7.90;;;;;;;;;;5015530;28;20021;-67
2022/12/12 00:36:57;;;;;;;18.48;8.20;;;;;;;;;;5015434;28;20101;-68
2022/12/12 00:39:22;;;;;;;18.65;7.88;;;;;;;;;;5015543;28;20080;-67
2022/12/12 00:41:48;;;;;;;15.60;6.85;;;;;;;;;;5009212;28;20022;-67
2022/12/12 00:44:14;;;;;;;16.05;7.25;;;;;;;;;;4995054;28;20516;-67
2022/12/12 00:46:39;;;;;;;15.98;7.18;;;;;;;;;;4995102;28;20023;-66
2022/12/12 00:49:05;;;;;;;16.17;7.43;;;;;;;;;;4995211;28;20045;-67
2022/12/12 00:51:30;;;;;;;14.88;7.35;;;;;;;;;;4995032;28;20030;-68
2022/12/12 00:53:58;;;;;;;19.02;7.78;;;;;;;;;;4995157;28;20014;-67
2022/12/12 00:56:24;;;;;;;17.52;7.05;;;;;;;;;;4995025;28;20105;-66
2022/12/12 00:58:51;;;;;;;14.38;7.03;;;;;;;;;;4994573;28;20042;-66
2022/12/12 01:01:26;;;;;;;16.35;6.97;;;;;;;;;;4995108;28;20022;-67
2022/12/12 01:03:52;;;;;;;14.57;6.63;;;;;;;;;;4992366;28;20022;-67
2022/12/12 01:06:19;;;;;;;14.65;6.53;;;;;;;;;;4994967;28;20101;-68
2022/12/12 01:08:44;;;;;;;13.98;7.00;;;;;;;;;;4994867;28;20073;-67
2022/12/12 01:11:11;;;;;;;14.88;6.40;;;;;;;;;;4994821;28;20053;-67
2022/12/12 01:13:37;;;;;;;13.23;6.10;;;;;;;;;;4995003;28;20034;-66
2022/12/12 01:16:04;;;;;;;9.52;5.03;;;;;;;;;;4995447;28;20030;-67
2022/12/12 01:18:29;;;;;;;12.85;5.78;;;;;;;;;;4995124;28;20389;-68
2022/12/12 01:20:55;;;;;;;12.70;5.45;;;;;;;;;;4995025;28;20036;-68
2022/12/12 01:23:20;;;;;;;10.80;6.05;;;;;;;;;;4994122;28;20026;-68
2022/12/12 01:25:46;;;;;;;11.88;5.28;;;;;;;;;;4994917;28;20473;-67
2022/12/12 01:28:11;;;;;;;11.20;4.90;;;;;;;;;;5003182;28;20125;-66
2022/12/12 01:30:37;;;;;;;10.48;4.22;;;;;;;;;;5014491;28;20041;-67
2022/12/12 01:33:03;;;;;;;11.52;5.10;;;;;;;;;;5014538;28;20041;-67
2022/12/12 01:35:30;;;;;;;13.18;5.80;;;;;;;;;;5014567;28;20139;-66
2022/12/12 01:37:55;;;;;;;9.32;5.00;;;;;;;;;;5014424;28;20036;-67
2022/12/12 01:40:23;;;;;;;10.93;4.95;;;;;;;;;;5014434;28;20030;-67
2022/12/12 01:42:49;;;;;;;10.65;5.05;;;;;;;;;;5006930;28;20101;-67
2022/12/12 01:45:52;;;;;;;9.05;4.57;;;;;;;;;;4995584;28;20035;-66
2022/12/12 01:48:19;;;;;;;7.70;4.78;;;;;;;;;;4974337;28;20035;-68
2022/12/12 01:50:45;;;;;;;8.55;4.32;;;;;;;;;;4974156;28;20505;-67
2022/12/12 01:53:14;;;;;;;8.23;4.65;;;;;;;;;;4974326;28;20037;-69
2022/12/12 01:55:40;;;;;;;8.55;4.40;;;;;;;;;;4973863;28;20078;-68
2022/12/12 01:58:06;;;;;;;7.53;3.85;;;;;;;;;;4974088;28;20039;-67
2022/12/12 02:00:32;;;;;;;7.80;4.22;;;;;;;;;;4974202;28;20050;-67
2022/12/12 02:02:57;;;;;;;8.13;4.38;;;;;;;;;;5001039;28;20033;-67
2022/12/12 02:05:28;;;;;;;7.15;3.67;;;;;;;;;;5013141;28;20049;-67
2022/12/12 02:07:54;;;;;;;10.07;5.25;;;;;;;;;;5013039;28;20064;-68
2022/12/12 02:10:20;;;;;;;7.43;3.60;;;;;;;;;;5012624;28;20057;-67
2022/12/12 02:12:46;;;;;;;7.07;3.70;;;;;;;;;;5013045;28;20473;-68
2022/12/12 02:15:12;;;;;;;8.00;3.90;;;;;;;;;;5012899;28;20041;-68
2022/12/12 02:18:06;;;;;;;6.45;3.95;;;;;;;;;;5012777;28;20079;-68
2022/12/12 02:20:52;;;;;;;7.30;3.72;;;;;;;;;;5012858;28;20040;-67
2022/12/12 02:23:39;;;;;;;6.85;3.40;;;;;;;;;;5012752;28;20324;-68
2022/12/12 02:26:14;;;;;;;5.05;2.85;;;;;;;;;;5012406;28;20473;-68
2022/12/12 02:29:00;;;;;;;6.97;3.13;;;;;;;;;;5012505;28;20096;-68
2022/12/12 02:31:44;;;;;;;4.65;2.97;;;;;;;;;;5012600;28;20101;-68
2022/12/12 02:34:30;;;;;;;5.82;2.97;;;;;;;;;;5013035;28;20068;-68
2022/12/12 02:37:03;;;;;;;4.22;2.72;;;;;;;;;;5013196;28;20389;-68
2022/12/12 02:40:02;;;;;;;4.43;2.80;;;;;;;;;;5011287;28;20057;-68
2022/12/12 02:42:41;;;;;;;4.05;2.65;;;;;;;;;;5012395;28;20037;-68
2022/12/12 02:45:13;;;;;;;3.13;1.63;;;;;;;;;;5012409;28;20022;-68
2022/12/12 02:47:52;;;;;;;3.65;2.10;;;;;;;;;;5012830;28;20119;-68
2022/12/12 02:50:24;;;;;;;4.00;2.27;;;;;;;;;;5011818;28;20033;-69
2022/12/12 02:52:50;;;;;;;3.70;2.42;;;;;;;;;;5012868;28;20029;-68
2022/12/12 02:55:17;;;;;;;4.13;2.30;;;;;;;;;;5012579;28;20029;-67
2022/12/12 02:57:43;;;;;;;4.50;2.30;;;;;;;;;;5012114;28;20164;-67
2022/12/12 03:00:16;;;;;;;4.07;2.53;;;;;;;;;;5012227;28;20163;-68
2022/12/12 03:10:08;;;;;;;3.78;2.42;;;;;;;;;;5012317;28;20405;-67
2022/12/12 03:12:36;;;;;;;4.63;2.72;;;;;;;;;;4950665;28;20642;-67
2022/12/12 03:15:12;;;;;;;4.43;2.30;;;;;;;;;;4952180;29;20051;-68
2022/12/12 03:17:45;;;;;;;4.25;2.47;;;;;;;;;;4952328;29;20051;-68
2022/12/12 03:20:19;;;;;;;3.22;2.10;;;;;;;;;;4952334;29;20059;-68
2022/12/12 03:23:01;;;;;;;3.63;2.33;;;;;;;;;;4952029;29;20027;-69
2022/12/12 03:25:40;;;;;;;3.53;2.15;;;;;;;;;;4952073;29;20059;-68
2022/12/12 03:28:13;;;;;;;2.92;1.83;;;;;;;;;;4951357;29;20035;-67
2022/12/12 03:30:47;;;;;;;2.88;1.90;;;;;;;;;;4951470;29;20117;-68
2022/12/12 03:33:19;;;;;;;3.17;2.05;;;;;;;;;;4951384;29;20035;-66
2022/12/12 03:36:00;;;;;;;2.90;2.00;;;;;;;;;;4951470;29;20046;-67
2022/12/12 03:38:33;;;;;;;2.40;1.73;;;;;;;;;;4951687;29;20090;-68
2022/12/12 03:41:05;;;;;;;3.08;2.08;;;;;;;;;;4952071;29;20035;-67
2022/12/12 03:43:38;;;;;;;3.15;2.00;;;;;;;;;;4952055;29;20086;-67
2022/12/12 03:46:22;;;;;;;3.08;2.13;;;;;;;;;;4952302;28;20578;-67
2022/12/12 03:48:54;;;;;;;4.28;2.13;;;;;;;;;;4959094;28;20038;-67
2022/12/12 03:51:27;;;;;;;3.40;1.90;;;;;;;;;;4976807;28;20031;-67
2022/12/12 03:54:02;;;;;;;2.67;1.85;;;;;;;;;;4977188;28;20054;-67
2022/12/12 03:56:44;;;;;;;3.70;2.00;;;;;;;;;;4976518;28;20046;-68
2022/12/12 03:59:15;;;;;;;2.95;1.65;;;;;;;;;;4976270;28;20027;-68
2022/12/12 04:01:41;;;;;;;3.08;2.28;;;;;;;;;;4976258;28;20450;-68
2022/12/12 04:04:27;;;;;;;3.22;1.70;;;;;;;;;;4976297;28;20058;-68
2022/12/12 04:07:02;;;;;;;2.45;1.70;;;;;;;;;;4976709;28;20030;-68
2022/12/12 04:15:04;;;;;;;2.88;2.08;;;;;;;;;;4976889;28;20037;-67
2022/12/12 04:17:42;;;;;;;3.22;2.00;;;;;;;;;;4976575;28;20034;-69
2022/12/12 04:23:39;;;;;;;3.60;2.00;;;;;;;;;;4955183;28;20126;-68
2022/12/12 04:26:38;;;;;;;3.25;2.50;;;;;;;;;;4954777;28;20051;-68
2022/12/12 04:29:12;;;;;;;3.60;2.05;;;;;;;;;;4985470;28;20065;-67
2022/12/12 04:31:46;;;;;;;3.45;2.22;;;;;;;;;;4992950;28;20041;-68
2022/12/12 04:34:18;;;;;;;6.55;2.95;;;;;;;;;;4993067;28;20033;-68
2022/12/12 04:36:46;;;;;;;7.88;2.80;;;;;;;;;;4992798;28;20041;-68
2022/12/12 04:39:15;;;;;;;6.43;3.10;;;;;;;;;;4993072;28;20038;-68
2022/12/12 04:41:44;;;;;;;5.35;3.17;;;;;;;;;;4993230;28;20641;-68
2022/12/12 04:44:11;;;;;;;7.15;3.40;;;;;;;;;;4993614;28;20034;-67
2022/12/12 04:46:39;;;;;;;4.93;2.78;;;;;;;;;;4993429;28;20043;-67
2022/12/12 04:49:12;;;;;;;8.52;3.47;;;;;;;;;;4993355;28;20224;-68
2022/12/12 04:51:44;;;;;;;5.85;2.90;;;;;;;;;;4992975;28;20505;-68
2022/12/12 04:54:18;;;;;;;5.43;2.85;;;;;;;;;;4993267;28;20035;-68
2022/12/12 04:56:47;;;;;;;6.72;2.75;;;;;;;;;;4993217;28;20113;-69
2022/12/12 04:59:12;;;;;;;5.43;3.00;;;;;;;;;;4998669;28;20041;-68
2022/12/12 05:01:53;;;;;;;3.85;2.65;;;;;;;;;;5014758;28;20405;-68
2022/12/12 05:04:37;;;;;;;5.68;3.00;;;;;;;;;;5013965;28;20025;-67
2022/12/12 05:07:09;;;;;;;6.03;3.55;;;;;;;;;;5014192;28;20053;-67
2022/12/12 05:09:36;;;;;;;7.03;3.17;;;;;;;;;;5014170;28;20022;-67
2022/12/12 05:12:01;;;;;;;5.20;3.08;;;;;;;;;;5014434;28;20024;-67
2022/12/12 05:14:29;;;;;;;7.75;3.85;;;;;;;;;;5014489;28;20489;-67
2022/12/12 05:17:02;;;;;;;8.65;4.32;;;;;;;;;;5014471;28;20026;-68
2022/12/12 05:19:27;;;;;;;7.60;4.20;;;;;;;;;;5014304;28;20032;-67
2022/12/12 05:21:53;;;;;;;7.18;4.15;;;;;;;;;;5014444;28;20030;-67
2022/12/12 05:24:18;;;;;;;7.75;4.15;;;;;;;;;;5014311;28;20034;-67
2022/12/12 05:26:44;;;;;;;5.35;3.55;;;;;;;;;;5014122;28;20534;-67
2022/12/12 05:29:09;;;;;;;5.57;3.45;;;;;;;;;;5014248;28;20508;-67
2022/12/12 05:31:35;;;;;;;8.15;3.65;;;;;;;;;;5013844;28;20037;-68
2022/12/12 05:34:01;;;;;;;6.78;3.60;;;;;;;;;;5013361;28;20040;-67
2022/12/12 05:36:26;;;;;;;4.82;3.28;;;;;;;;;;5013460;28;20030;-68
2022/12/12 05:38:52;;;;;;;6.40;3.42;;;;;;;;;;5013606;28;20034;-68
2022/12/12 05:41:17;;;;;;;6.85;4.15;;;;;;;;;;5013725;28;20113;-68
2022/12/12 05:43:43;;;;;;;5.85;4.07;;;;;;;;;;5014060;28;20396;-68
2022/12/12 05:46:08;;;;;;;7.80;4.28;;;;;;;;;;5013942;28;20390;-67
2022/12/12 05:48:34;;;;;;;8.35;5.18;;;;;;;;;;5013777;28;20051;-67
2022/12/12 05:51:00;;;;;;;8.60;4.55;;;;;;;;;;5013798;28;20022;-67
2022/12/12 05:53:26;;;;;;;5.65;3.80;;;;;;;;;;5013819;28;20041;-67
2022/12/12 05:55:52;;;;;;;6.90;4.22;;;;;;;;;;5013811;28;20026;-67
2022/12/12 05:58:18;;;;;;;7.65;2.97;;;;;;;;;;5013536;28;20504;-67
2022/12/12 06:00:47;;;;;;;6.90;3.80;;;;;;;;;;5013088;28;20054;-67
2022/12/12 06:03:14;;;;;;;6.03;3.95;;;;;;;;;;5012646;28;20038;-68
2022/12/12 06:05:40;;;;;;;5.63;3.78;;;;;;;;;;5012724;28;20432;-67
2022/12/12 06:08:06;;;;;;;9.07;4.13;;;;;;;;;;5012833;28;20168;-67
2022/12/12 06:10:31;;;;;;;9.60;4.70;;;;;;;;;;5012493;28;20030;-67
2022/12/12 06:12:57;;;;;;;7.03;3.78;;;;;;;;;;5013314;28;20030;-67
2022/12/12 06:15:22;;;;;;;9.50;4.72;;;;;;;;;;5013460;28;20030;-68
2022/12/12 06:17:50;;;;;;;20.75;10.65;;;;;;;;;;5013051;28;20064;-67
2022/12/12 06:20:16;;;;;;;9.70;6.75;;;;;;;;;;5013188;28;20021;-67
2022/12/12 06:22:42;;;;;;;10.48;7.65;;;;;;;;;;5013253;28;20109;-67
2022/12/12 06:25:08;;;;;;;9.45;5.57;;;;;;;;;;5011634;28;20112;-67
2022/12/12 06:27:33;;;;;;;9.65;5.63;;;;;;;;;;5012878;28;20153;-67
2022/12/12 06:29:59;;;;;;;11.30;7.25;;;;;;;;;;5012533;28;20473;-67
2022/12/12 06:32:24;;;;;;;11.52;7.03;;;;;;;;;;5012301;28;20021;-67
2022/12/12 06:34:49;;;;;;;13.30;9.13;;;;;;;;;;5012083;28;20029;-68
2022/12/12 06:37:15;;;;;;;13.07;7.80;;;;;;;;;;5011198;28;20045;-67
2022/12/12 06:39:41;;;;;;;11.73;8.13;;;;;;;;;;5013048;28;20038;-68
2022/12/12 06:42:06;;;;;;;12.48;8.18;;;;;;;;;;5012995;28;20103;-67
2022/12/12 06:44:32;;;;;;;12.45;6.68;;;;;;;;;;5012735;28;20040;-67
2022/12/12 06:46:57;;;;;;;14.20;9.02;;;;;;;;;;5012625;28;20032;-67
2022/12/12 06:49:23;;;;;;;160.80;65.18;;;;;;;;;;5012581;28;20033;-67
2022/12/12 06:51:48;;;;;;;27.02;12.48;;;;;;;;;;5013067;28;20105;-68
2022/12/12 06:54:16;;;;;;;22.58;14.65;;;;;;;;;;5012696;28;20030;-67
2022/12/12 06:56:42;;;;;;;14.10;8.70;;;;;;;;;;5012220;28;20038;-67
2022/12/12 06:59:11;;;;;;;14.38;8.63;;;;;;;;;;5011863;28;20122;-67
2022/12/12 07:01:37;;;;;;;13.77;7.35;;;;;;;;;;5010503;28;20452;-68
2022/12/12 07:04:02;;;;;;;14.93;8.43;;;;;;;;;;5012151;28;20029;-67
2022/12/12 07:06:28;;;;;;;27.80;17.20;;;;;;;;;;5012616;28;20030;-67
2022/12/12 07:08:54;;;;;;;20.42;10.38;;;;;;;;;;5012592;28;20116;-67
2022/12/12 07:11:22;;;;;;;16.02;9.18;;;;;;;;;;5010963;28;20026;-67
2022/12/12 07:13:48;;;;;;;15.70;8.52;;;;;;;;;;5011949;28;20061;-67
2022/12/12 07:16:15;;;;;;;13.85;10.25;;;;;;;;;;5010578;28;20065;-67
2022/12/12 07:18:41;;;;;;;15.90;9.32;;;;;;;;;;5010638;28;20041;-67
2022/12/12 07:21:10;;;;;;;13.10;6.63;;;;;;;;;;5012783;28;20060;-67
2022/12/12 07:23:36;;;;;;;12.20;7.87;;;;;;;;;;5016605;28;20026;-67
2022/12/12 07:26:04;;;;;;;12.77;8.07;;;;;;;;;;5015318;28;20516;-67
2022/12/12 07:28:29;;;;;;;9.50;5.78;;;;;;;;;;5016328;28;20059;-67
2022/12/12 07:30:55;;;;;;;14.95;7.20;;;;;;;;;;5016048;28;20021;-67
2022/12/12 07:33:20;;;;;;;10.00;6.25;;;;;;;;;;5016485;28;20029;-67
2022/12/12 07:35:46;;;;;;;11.85;6.82;;;;;;;;;;5016379;28;20115;-67
2022/12/12 07:38:12;;;;;;;17.98;9.13;;;;;;;;;;5016309;28;20042;-67
2022/12/12 07:40:38;;;;;;;10.70;6.78;;;;;;;;;;5016305;28;20022;-67
2022/12/12 07:43:03;;;;;;;12.27;7.78;;;;;;;;;;5015925;28;20080;-67
2022/12/12 07:45:29;;;;;;;13.32;7.20;;;;;;;;;;5015407;28;20030;-67
2022/12/12 07:47:55;;;;;;;10.68;5.75;;;;;;;;;;5015369;28;20026;-67
2022/12/12 07:50:21;;;;;;;10.98;6.30;;;;;;;;;;5015424;28;20022;-67
2022/12/12 07:52:47;;;;;;;8.90;5.55;;;;;;;;;;5015868;28;20431;-67
2022/12/12 07:55:13;;;;;;;10.45;6.10;;;;;;;;;;5016150;28;20029;-67
2022/12/12 07:57:40;;;;;;;13.65;6.18;;;;;;;;;;5016020;28;20037;-67
2022/12/12 08:00:07;;;;;;;14.57;7.38;;;;;;;;;;5015720;28;20026;-67
2022/12/12 08:02:33;;;;;;;15.95;7.82;;;;;;;;;;5015812;28;20026;-67
2022/12/12 08:04:58;;;;;;;12.85;6.60;;;;;;;;;;5015908;28;20041;-67
2022/12/12 08:07:24;;;;;;;12.23;6.78;;;;;;;;;;5015779;28;20535;-67
2022/12/12 08:09:49;;;;;;;12.10;7.20;;;;;;;;;;5015787;28;20022;-67
2022/12/12 08:12:15;;;;;;;12.82;6.22;;;;;;;;;;5015363;28;20022;-67
2022/12/12 08:14:40;;;;;;;13.00;7.35;;;;;;;;;;5015000;28;20022;-68
2022/12/12 08:17:06;;;;;;;9.18;5.30;;;;;;;;;;5014930;28;20045;-67
2022/12/12 08:19:32;;;;;;;11.38;6.25;;;;;;;;;;5014863;28;20045;-67
2022/12/12 08:21:57;;;;;;;7.97;5.00;;;;;;;;;;5015143;28;20108;-67
2022/12/12 08:24:23;;;;;;;12.52;5.50;;;;;;;;;;5015388;28;20030;-67
2022/12/12 08:26:50;;;;;;;13.48;7.53;;;;;;;;;;5015281;28;20137;-68
2022/12/12 08:29:15;;;;;;;11.18;6.13;;;;;;;;;;5015292;28;20501;-67
2022/12/12 08:31:41;;;;;;;12.77;7.00;;;;;;;;;;5015283;28;20033;-67
2022/12/12 08:34:06;;;;;;;13.40;7.95;;;;;;;;;;5013820;28;20022;-67
2022/12/12 08:36:34;;;;;;;11.10;6.18;;;;;;;;;;5015240;28;20088;-67
2022/12/12 08:39:08;;;;;;;10.80;5.88;;;;;;;;;;5013698;28;20370;-67
2022/12/12 08:41:36;;;;;;;11.73;5.07;;;;;;;;;;5014524;28;20358;-67
2022/12/12 08:44:01;;;;;;;8.55;4.88;;;;;;;;;;5014628;28;20350;-68
2022/12/12 08:46:27;;;;;;;9.50;5.65;;;;;;;;;;5014637;28;20065;-68
2022/12/12 08:48:52;;;;;;;11.63;5.65;;;;;;;;;;5014591;28;20033;-67
2022/12/12 08:51:18;;;;;;;11.70;5.22;;;;;;;;;;5010602;28;20420;-67
2022/12/12 08:53:49;;;;;;;22.27;10.63;;;;;;;;;;4989367;28;20030;-67
2022/12/12 08:56:16;;;;;;;13.80;6.55;;;;;;;;;;4992078;28;20029;-67
2022/12/12 08:58:43;;;;;;;10.63;5.22;;;;;;;;;;4991463;28;20039;-67
2022/12/12 09:01:15;;;;;;;10.88;4.68;;;;;;;;;;4996591;28;20057;-67
2022/12/12 09:03:40;;;;;;;9.65;4.78;;;;;;;;;;4989061;28;20022;-67
2022/12/12 09:06:07;;;;;;;11.27;4.88;;;;;;;;;;4992445;28;20023;-68
2022/12/12 09:08:33;;;;;;;21.48;10.60;;;;;;;;;;4999421;28;20121;-68
2022/12/12 09:10:59;;;;;;;12.50;7.50;;;;;;;;;;4998824;28;20418;-67
2022/12/12 09:13:24;;;;;;;9.93;6.75;;;;;;;;;;5006766;28;20481;-67
2022/12/12 09:15:51;;;;;;;17.40;12.38;;;;;;;;;;4996755;28;20037;-67
2022/12/12 09:18:17;;;;;;;8.25;5.50;;;;;;;;;;5003765;28;20026;-68
2022/12/12 09:20:50;;;;;;;10.32;5.75;;;;;;;;;;5006835;28;20130;-67
2022/12/12 09:23:17;;;;;;;11.05;6.90;;;;;;;;;;4991294;28;20030;-67
2022/12/12 09:25:43;;;;;;;7.85;5.22;;;;;;;;;;4991366;28;20041;-67
2022/12/12 09:28:14;;;;;;;8.93;5.30;;;;;;;;;;4999410;28;20485;-66
2022/12/12 09:30:39;;;;;;;;;;;;;;;;;;5007097;28;20037;-67
2022/12/12 09:33:05;;;;;;;5.47;3.47;;;;;;;;;;5003494;28;19914;-66
2022/12/12 09:35:31;;;;;;;10.35;5.03;;;;;;;;;;4997311;28;21563;-66
2022/12/12 09:37:56;;;;;;;99.45;32.35;;;;;;;;;;5006494;28;20026;-66
2022/12/12 09:40:34;;;;;;;9.10;5.47;;;;;;;;;;5006158;28;20022;-67
2022/12/12 09:43:01;;;;;;;7.38;4.22;;;;;;;;;;5003601;28;20097;-66
2022/12/12 09:45:28;;;;;;;7.57;4.25;;;;;;;;;;5003017;28;20022;-66
2022/12/12 09:47:58;;;;;;;9.68;5.05;;;;;;;;;;4994541;28;20043;-66
2022/12/12 09:50:46;;;;;;;6.03;3.90;;;;;;;;;;4998356;28;20029;-66
2022/12/12 09:53:15;;;;;;;7.40;4.50;;;;;;;;;;5002962;28;20161;-67
2022/12/12 09:55:53;;;;;;;4.53;2.97;;;;;;;;;;4995646;28;20026;-66
2022/12/12 09:58:42;;;;;;;8.20;5.10;;;;;;;;;;5003307;28;20041;-67
2022/12/12 10:01:25;;;;;;;6.32;3.90;;;;;;;;;;4992232;28;20044;-66
2022/12/12 10:04:09;;;;;;;4.75;3.63;;;;;;;;;;4996504;28;20019;-67
2022/12/12 10:06:46;;;;;;;6.32;3.63;;;;;;;;;;5006748;28;20109;-67
2022/12/12 10:09:29;;;;;;;4.85;3.03;;;;;;;;;;5001983;28;20086;-67
2022/12/12 10:11:56;;;;;;;3.00;2.15;;;;;;;;;;5005056;28;20026;-66
2022/12/12 10:14:25;;;;;;;5.90;3.28;;;;;;;;;;5010150;28;20033;-67
2022/12/12 10:16:50;;;;;;;3.55;2.70;;;;;;;;;;5005123;28;20049;-68
2022/12/12 10:19:24;;;;;;;6.63;3.50;;;;;;;;;;4998984;28;20563;-67
2022/12/12 10:21:52;;;;;;;14.45;9.23;;;;;;;;;;4999681;28;20037;-67
2022/12/12 10:24:35;;;;;;;15.80;7.93;;;;;;;;;;5009111;28;20046;-66
2022/12/12 10:27:09;;;;;;;5.70;3.65;;;;;;;;;;4994705;28;20061;-66
2022/12/12 10:29:35;;;;;;;7.00;4.60;;;;;;;;;;5002995;28;20030;-67
2022/12/12 10:32:10;;;;;;;4.95;3.42;;;;;;;;;;5001768;28;20397;-66
2022/12/12 10:35:00;;;;;;;7.18;4.13;;;;;;;;;;5009972;28;20060;-67
2022/12/12 10:37:37;;;;;;;6.47;4.30;;;;;;;;;;4997192;28;20034;-67
2022/12/12 10:40:14;;;;;;;7.40;4.90;;;;;;;;;;5005288;28;20496;-67
2022/12/12 10:42:56;;;;;;;8.23;4.28;;;;;;;;;;4993993;28;20031;-67
2022/12/12 10:45:31;;;;;;;7.03;4.50;;;;;;;;;;5005555;28;20032;-67
2022/12/12 10:47:57;;;;;;;6.10;4.38;;;;;;;;;;5002662;28;20104;-66
2022/12/12 10:50:38;;;;;;;5.47;3.22;;;;;;;;;;4994565;28;20109;-65
2022/12/12 10:53:06;;;;;;;6.18;4.57;;;;;;;;;;5001855;28;20033;-65
2022/12/12 10:55:41;;;;;;;5.30;3.53;;;;;;;;;;5001453;28;20489;-66
2022/12/12 10:58:06;;;;;;;3.88;2.78;;;;;;;;;;4991404;28;20037;-67
2022/12/12 11:00:38;;;;;;;5.45;4.05;;;;;;;;;;4997494;28;20088;-67
2022/12/12 11:03:12;;;;;;;7.07;4.18;;;;;;;;;;5005853;28;20211;-66
2022/12/12 11:05:39;;;;;;;6.50;4.13;;;;;;;;;;5009440;28;20061;-67
2022/12/12 11:08:18;;;;;;;8.68;5.85;;;;;;;;;;4992758;28;20030;-67
2022/12/12 11:10:43;;;;;;;6.95;4.82;;;;;;;;;;4993312;28;20109;-67
2022/12/12 11:13:09;;;;;;;7.18;4.03;;;;;;;;;;4993256;28;20605;-67
2022/12/12 11:16:11;;;;;;;6.50;4.13;;;;;;;;;;4992472;28;20022;-66
2022/12/12 11:18:36;;;;;;;5.90;4.10;;;;;;;;;;4970553;28;20043;-67
2022/12/12 11:21:08;;;;;;;6.13;4.03;;;;;;;;;;4971649;28;20142;-65
2022/12/12 11:23:38;;;;;;;7.13;4.50;;;;;;;;;;4971782;28;20109;-65
2022/12/12 11:26:25;;;;;;;7.40;4.20;;;;;;;;;;4969812;28;20450;-66
2022/12/12 11:28:57;;;;;;;8.05;4.63;;;;;;;;;;4982624;28;20042;-66
2022/12/12 11:31:26;;;;;;;5.60;3.83;;;;;;;;;;4988716;28;20084;-66
2022/12/12 11:33:55;;;;;;;7.28;4.45;;;;;;;;;;4988596;28;20026;-66
2022/12/12 11:36:29;;;;;;;9.02;5.18;;;;;;;;;;4988225;28;20022;-66
2022/12/12 11:38:55;;;;;;;8.25;4.68;;;;;;;;;;4988290;28;20038;-66
2022/12/12 11:41:21;;;;;;;6.07;3.90;;;;;;;;;;4990028;28;20056;-66
2022/12/12 11:43:47;;;;;;;7.43;4.72;;;;;;;;;;4990940;28;20030;-66
2022/12/12 11:46:12;;;;;;;8.70;5.72;;;;;;;;;;4990744;28;20482;-66
2022/12/12 11:49:04;;;;;;;6.47;4.00;;;;;;;;;;4990783;28;20391;-66
2022/12/12 11:51:29;;;;;;;9.18;6.65;;;;;;;;;;4987892;28;20034;-66
2022/12/12 11:53:55;;;;;;;8.32;4.82;;;;;;;;;;4999092;28;20478;-66
2022/12/12 11:56:23;;;;;;;11.10;6.07;;;;;;;;;;5012436;28;20026;-66
2022/12/12 11:59:09;;;;;;;7.22;4.78;;;;;;;;;;5012342;28;20115;-66
2022/12/12 12:02:02;;;;;;;6.15;4.20;;;;;;;;;;5012338;28;20033;-66
2022/12/12 12:04:33;;;;;;;6.40;4.30;;;;;;;;;;5012140;28;20132;-66
2022/12/12 12:07:05;;;;;;;9.63;5.97;;;;;;;;;;5012566;28;20038;-66
2022/12/12 12:09:45;;;;;;;8.27;5.50;;;;;;;;;;5016095;28;20133;-66
2022/12/12 12:12:16;;;;;;;10.70;6.63;;;;;;;;;;4998545;28;20218;-66
2022/12/12 12:15:04;;;;;;;9.77;5.97;;;;;;;;;;5014825;28;20056;-66
2022/12/12 12:17:49;;;;;;;10.18;6.63;;;;;;;;;;5015844;28;20354;-66
2022/12/12 12:20:44;;;;;;;7.72;4.82;;;;;;;;;;5015533;28;20108;-66
2022/12/12 12:23:31;;;;;;;6.20;3.97;;;;;;;;;;5015773;28;20022;-67
2022/12/12 12:26:07;;;;;;;9.57;5.85;;;;;;;;;;5014291;28;20128;-67
2022/12/12 12:29:09;;;;;;;13.27;8.27;;;;;;;;;;5015816;28;20105;-67
2022/12/12 12:32:12;;;;;;;12.73;7.35;;;;;;;;;;5015673;28;20105;-67
2022/12/12 12:35:08;;;;;;;10.02;7.43;;;;;;;;;;5015511;28;20568;-67
2022/12/12 12:37:56;;;;;;;8.88;5.68;;;;;;;;;;5015513;28;20125;-67
2022/12/12 12:41:01;;;;;;;10.68;6.72;;;;;;;;;;4974191;28;20383;-67
2022/12/12 12:43:54;;;;;;;8.20;5.32;;;;;;;;;;4974526;28;20363;-67
2022/12/12 12:46:49;;;;;;;9.32;4.90;;;;;;;;;;4974333;28;20041;-67
2022/12/12 12:49:20;;;;;;;9.25;5.28;;;;;;;;;;4954331;29;20113;-67
2022/12/12 12:51:53;;;;;;;12.45;6.95;;;;;;;;;;4955025;29;20046;-67
2022/12/12 12:54:45;;;;;;;9.07;5.25;;;;;;;;;;4954884;29;20039;-67
2022/12/12 12:57:16;;;;;;;8.88;5.22;;;;;;;;;;4952710;29;20035;-67
2022/12/12 12:59:48;;;;;;;9.98;5.60;;;;;;;;;;4938835;29;20120;-67
2022/12/12 13:02:21;;;;;;;10.20;6.38;;;;;;;;;;4954875;29;20035;-67
2022/12/12 13:05:05;;;;;;;8.48;5.22;;;;;;;;;;4954679;29;20070;-68
2022/12/12 13:07:40;;;;;;;11.43;7.10;;;;;;;;;;4954602;29;20530;-67
2022/12/12 13:10:18;;;;;;;7.13;4.07;;;;;;;;;;4954552;29;20035;-68
2022/12/12 13:12:54;;;;;;;8.90;5.03;;;;;;;;;;4954726;29;20068;-68
2022/12/12 13:15:44;;;;;;;13.57;6.35;;;;;;;;;;4954732;29;20557;-68
2022/12/12 13:18:15;;;;;;;52.35;12.70;;;;;;;;;;4971762;28;20117;-67
2022/12/12 13:20:46;;;;;;;22.10;9.32;;;;;;;;;;4982272;28;20037;-68
2022/12/12 13:23:36;;;;;;;65.70;16.33;;;;;;;;;;4985126;23;20149;-67
2022/12/12 13:26:08;;;;;;;13.67;4.83;;;;;;;;;;4974740;28;20034;-67
2022/12/12 13:28:50;;;;;;;15.65;6.88;;;;;;;;;;4972886;28;20102;-67
2022/12/12 13:31:28;;;;;;;108.25;24.95;;;;;;;;;;4974859;28;20035;-67
2022/12/12 13:34:05;;;;;;;9.68;7.22;;;;;;;;;;4973425;28;20026;-68
2022/12/12 13:36:36;;;;;;;6.63;4.57;;;;;;;;;;4975320;28;20022;-68
2022/12/12 13:39:05;;;;;;;6.07;4.15;;;;;;;;;;4974823;28;20158;-68
2022/12/12 13:41:53;;;;;;;6.88;4.80;;;;;;;;;;4974865;28;20030;-67
2022/12/12 13:44:37;;;;;;;7.10;4.50;;;;;;;;;;4974934;28;20026;-69
2022/12/12 13:47:22;;;;;;;5.80;4.05;;;;;;;;;;4975596;28;20030;-68
2022/12/12 13:49:55;;;;;;;4.95;3.42;;;;;;;;;;4966332;28;20050;-67
2022/12/12 13:52:31;;;;;;;9.63;5.72;;;;;;;;;;4972983;28;20042;-68
2022/12/12 13:55:12;;;;;;;9.30;6.03;;;;;;;;;;4972750;28;20109;-68
2022/12/12 13:57:56;;;;;;;6.82;3.47;;;;;;;;;;4972662;28;20073;-67
2022/12/12 14:00:26;;;;;;;6.57;4.63;;;;;;;;;;4972440;28;20039;-67
2022/12/12 14:02:57;;;;;;;4.35;3.13;;;;;;;;;;4972593;28;20415;-68
2022/12/12 14:05:26;;;;;;;5.50;3.75;;;;;;;;;;4972390;28;20031;-68
2022/12/12 14:08:01;;;;;;;9.70;5.33;;;;;;;;;;4956363;28;20129;-68
2022/12/12 14:10:35;;;;;;;7.40;4.53;;;;;;;;;;4972529;28;20081;-68
2022/12/12 14:13:22;;;;;;;8.80;5.65;;;;;;;;;;4972495;28;20113;-68
2022/12/12 14:15:57;;;;;;;14.80;8.75;;;;;;;;;;4972238;28;20410;-67
2022/12/12 14:18:27;;;;;;;11.07;6.35;;;;;;;;;;4972488;28;20041;-67
2022/12/12 14:21:02;;;;;;;9.55;5.28;;;;;;;;;;4972393;28;20118;-68
2022/12/12 14:23:38;;;;;;;13.48;7.97;;;;;;;;;;4971604;28;20506;-67
2022/12/12 14:26:33;;;;;;;19.58;13.30;;;;;;;;;;4969854;28;20505;-67
2022/12/12 14:29:16;;;;;;;10.10;6.07;;;;;;;;;;4968759;28;20564;-67
2022/12/12 14:32:00;;;;;;;10.52;6.18;;;;;;;;;;4973745;28;20054;-67
2022/12/12 14:34:46;;;;;;;12.23;6.45;;;;;;;;;;4974369;28;20082;-66
2022/12/12 14:37:14;;;;;;;16.38;8.15;;;;;;;;;;4974196;28;20086;-67
2022/12/12 14:39:56;;;;;;;10.10;5.90;;;;;;;;;;4973959;28;20035;-67
2022/12/12 14:42:55;;;;;;;14.20;8.02;;;;;;;;;;4974342;28;20023;-67
2022/12/12 14:45:51;;;;;;;8.90;5.50;;;;;;;;;;4973559;28;20058;-67
2022/12/12 14:48:26;;;;;;;7.05;5.30;;;;;;;;;;4971427;28;20046;-66
2022/12/12 14:50:56;;;;;;;9.88;6.03;;;;;;;;;;4974280;28;20030;-67
2022/12/12 14:53:25;;;;;;;11.40;7.07;;;;;;;;;;4973905;28;20022;-67
2022/12/12 14:55:56;;;;;;;6.60;4.78;;;;;;;;;;4973995;28;20508;-67
2022/12/12 14:58:25;;;;;;;12.63;6.50;;;;;;;;;;4973649;28;20121;-67
2022/12/12 15:00:54;;;;;;;6.55;4.72;;;;;;;;;;4973961;28;20031;-67
2022/12/12 15:03:27;;;;;;;14.32;10.10;;;;;;;;;;4973697;28;20080;-67
2022/12/12 15:06:18;;;;;;;10.30;6.38;;;;;;;;;;4973245;28;20046;-67
2022/12/12 15:08:43;;;;;;;14.27;8.77;;;;;;;;;;4973381;28;20549;-67
2022/12/12 15:11:14;;;;;;;27.33;15.93;;;;;;;;;;4973623;28;20113;-67
2022/12/12 15:14:19;;;;;;;24.88;15.00;;;;;;;;;;4973530;28;20030;-67
2022/12/12 15:16:49;;;;;;;13.82;8.43;;;;;;;;;;4970541;28;20085;-67
2022/12/12 15:19:26;;;;;;;11.73;7.38;;;;;;;;;;4973527;28;20366;-67
2022/12/12 15:21:52;;;;;;;11.05;5.30;;;;;;;;;;4973288;28;20061;-67